N55CR -E16

Flight info

Callsign N55CR
Flight time N/A
Altitude
Route
Aircraft SF50/L-VGDW/C

Departure

Time N/A
Airport -

Arrival

Time 2026-04-26 17:16
Airport San Martin Airport (E16)
Time Latitude Longitude Altitude Speed Heading
2026-04-26 15:56 33.58119 -118.35346 9827 ft 256 kts 272°
2026-04-26 15:57 33.58081 -118.37497 9835 ft 260 kts 271°
2026-04-26 15:57 33.58006 -118.39664 9854 ft 261 kts 268°
2026-04-26 15:57 33.57799 -118.41833 9778 ft 264 kts 265°
2026-04-26 15:57 33.57628 -118.43294 9732 ft 265 kts 264°
2026-04-26 15:58 33.57303 -118.46215 9708 ft 264 kts 266°
2026-04-26 15:58 33.57146 -118.48379 9824 ft 260 kts 268°
2026-04-26 15:58 33.57041 -118.50521 10057 ft 256 kts 271°
2026-04-26 15:58 33.57124 -118.52624 10290 ft 253 kts 281°
2026-04-26 15:59 33.57703 -118.54627 10244 ft 260 kts 296°
2026-04-26 15:59 33.58497 -118.56599 10314 ft 262 kts 295°
2026-04-26 15:59 33.59287 -118.58583 10309 ft 265 kts 296°
2026-04-26 15:59 33.60117 -118.60513 10386 ft 259 kts 298°
2026-04-26 16:00 33.61051 -118.62367 10251 ft 260 kts 303°
2026-04-26 16:00 33.62149 -118.64127 10051 ft 263 kts 308°
2026-04-26 16:00 33.63289 -118.65810 9966 ft 261 kts 307°
2026-04-26 16:00 33.64449 -118.67484 9840 ft 262 kts 308°
2026-04-26 16:01 33.65653 -118.69143 9655 ft 264 kts 310°
2026-04-26 16:01 33.66939 -118.70732 9454 ft 263 kts 314°
2026-04-26 16:01 33.68347 -118.72105 9224 ft 263 kts 322°
2026-04-26 16:01 33.70115 -118.72849 8591 ft 283 kts 352°
2026-04-26 16:02 33.72021 -118.72585 8766 ft 263 kts
2026-04-26 16:02 33.73741 -118.72176 9078 ft 242 kts 359°
2026-04-26 16:02 33.75444 -118.72175 8971 ft 246 kts 352°
2026-04-26 16:02 33.76566 -118.72237 9173 ft 238 kts 352°
2026-04-26 16:03 33.78703 -118.72310 9503 ft 230 kts 353°
2026-04-26 16:03 33.80330 -118.72313 9636 ft 230 kts 355°
2026-04-26 16:03 33.81882 -118.72179 10102 ft 217 kts 360°
2026-04-26 16:03 33.83330 -118.72012 10593 ft 203 kts 358°
2026-04-26 16:04 33.84694 -118.71840 11096 ft 191 kts 358°
2026-04-26 16:04 33.85963 -118.71661 11597 ft 179 kts 358°
2026-04-26 16:04 33.87145 -118.71474 12097 ft 167 kts 359°
2026-04-26 16:04 33.88227 -118.71429 12596 ft 148 kts 350°
2026-04-26 16:05 33.89178 -118.71498 13082 ft 129 kts 345°
2026-04-26 16:05 33.89988 -118.71558 13547 ft 105 kts 345°
2026-04-26 16:05 33.90678 -118.71577 13762 ft 97 kts 345°
2026-04-26 16:05 33.91337 -118.71589 13869 ft 96 kts 345°
2026-04-26 16:06 33.91994 -118.71596 13965 ft 95 kts 345°
2026-04-26 16:06 33.92665 -118.71606 14143 ft 98 kts 344°
2026-04-26 16:06 33.93326 -118.71608 14386 ft 98 kts 345°
2026-04-26 16:06 33.94066 -118.71632 14449 ft 117 kts 345°
2026-04-26 16:07 33.94981 -118.71709 14461 ft 146 kts 345°
2026-04-26 16:07 33.96086 -118.71847 14455 ft 175 kts 345°
2026-04-26 16:07 33.97397 -118.72051 14447 ft 202 kts 345°
2026-04-26 16:07 33.98868 -118.72309 14435 ft 224 kts 345°
2026-04-26 16:08 34.00470 -118.72606 14430 ft 240 kts 345°
2026-04-26 16:08 34.02172 -118.72944 14424 ft 252 kts 345°
2026-04-26 16:08 34.03921 -118.73304 14421 ft 261 kts 345°
2026-04-26 16:08 34.05736 -118.73685 14420 ft 267 kts 345°
2026-04-26 16:09 34.07599 -118.74087 14418 ft 272 kts 345°
2026-04-26 16:09 34.09483 -118.74494 14416 ft 274 kts 345°
2026-04-26 16:09 34.11341 -118.74897 14414 ft 273 kts 345°
2026-04-26 16:09 34.13228 -118.75310 14415 ft 272 kts 345°
2026-04-26 16:10 34.15093 -118.75722 14415 ft 272 kts 345°
2026-04-26 16:10 34.16953 -118.76131 14412 ft 272 kts 345°
2026-04-26 16:10 34.18812 -118.76542 14413 ft 271 kts 345°
2026-04-26 16:10 34.20674 -118.76959 14412 ft 271 kts 345°
2026-04-26 16:11 34.22516 -118.77363 14408 ft 271 kts 345°
2026-04-26 16:11 34.24386 -118.77776 14410 ft 271 kts 345°
2026-04-26 16:11 34.26235 -118.78196 14408 ft 271 kts 345°
2026-04-26 16:11 34.28083 -118.78625 14412 ft 271 kts 345°
2026-04-26 16:12 34.29929 -118.79051 14408 ft 271 kts 345°
2026-04-26 16:12 34.31800 -118.79479 14406 ft 271 kts 345°
2026-04-26 16:12 34.35489 -118.80324 14402 ft 270 kts 345°
2026-04-26 16:13 34.37338 -118.80748 14402 ft 270 kts 345°
2026-04-26 16:13 34.39197 -118.81181 14406 ft 270 kts 345°
2026-04-26 16:13 34.41027 -118.81610 14408 ft 270 kts 345°
2026-04-26 16:13 34.42886 -118.82049 14400 ft 271 kts 345°
2026-04-26 16:14 34.44725 -118.82481 14391 ft 271 kts 345°
2026-04-26 16:14 34.46571 -118.82921 14380 ft 271 kts 345°
2026-04-26 16:14 34.50290 -118.83817 14383 ft 270 kts 345°
2026-04-26 16:15 34.52125 -118.84258 14378 ft 270 kts 345°
2026-04-26 16:15 34.53966 -118.84705 14373 ft 270 kts 345°
2026-04-26 16:15 34.55811 -118.85160 14369 ft 271 kts 345°
2026-04-26 16:16 34.59517 -118.86071 14360 ft 270 kts 345°
2026-04-26 16:16 34.61357 -118.86530 14361 ft 270 kts 345°
2026-04-26 16:16 34.63211 -118.86993 14363 ft 270 kts 345°
2026-04-26 16:16 34.65048 -118.87457 14361 ft 269 kts 345°
2026-04-26 16:17 34.66865 -118.87916 14359 ft 269 kts 345°
2026-04-26 16:17 34.68707 -118.88384 14356 ft 269 kts 345°
2026-04-26 16:17 34.70542 -118.88852 14357 ft 269 kts 345°
2026-04-26 16:17 34.72366 -118.89322 14350 ft 270 kts 345°
2026-04-26 16:18 34.74210 -118.89796 14347 ft 270 kts 345°
2026-04-26 16:18 34.77884 -118.90757 14345 ft 270 kts 345°
2026-04-26 16:19 34.81545 -118.91731 14358 ft 269 kts 345°
2026-04-26 16:19 34.83399 -118.92227 14361 ft 269 kts 345°
2026-04-26 16:19 34.87049 -118.93204 14365 ft 269 kts 345°
2026-04-26 16:20 34.87870 -118.93425 14364 ft 269 kts 345°
2026-04-26 16:20 34.90900 -118.94239 14372 ft 268 kts 345°
2026-04-26 16:20 34.92730 -118.94730 14381 ft 268 kts 345°
2026-04-26 16:21 34.94565 -118.95225 14386 ft 268 kts 345°
2026-04-26 16:21 34.96388 -118.95723 14388 ft 268 kts 345°
2026-04-26 16:21 34.98210 -118.96223 14391 ft 268 kts 345°
2026-04-26 16:21 35.00013 -118.96717 14399 ft 268 kts 345°
2026-04-26 16:22 35.01853 -118.97226 14398 ft 268 kts 345°
2026-04-26 16:22 35.03654 -118.97723 14405 ft 268 kts 345°
2026-04-26 16:22 35.05481 -118.98229 14405 ft 268 kts 345°
2026-04-26 16:22 35.07321 -118.98739 14417 ft 268 kts 345°
2026-04-26 16:23 35.09136 -118.99245 14414 ft 268 kts 345°
2026-04-26 16:23 35.10944 -118.99751 14413 ft 268 kts 345°
2026-04-26 16:23 35.12779 -119.00267 14415 ft 269 kts 345°
2026-04-26 16:23 35.14591 -119.00783 14421 ft 269 kts 345°
2026-04-26 16:24 35.16433 -119.01311 14415 ft 269 kts 345°
2026-04-26 16:24 35.18248 -119.01831 14415 ft 270 kts 345°
2026-04-26 16:24 35.20068 -119.02351 14421 ft 270 kts 345°
2026-04-26 16:24 35.21918 -119.02881 14422 ft 270 kts 345°
2026-04-26 16:25 35.23744 -119.03403 14421 ft 270 kts 345°
2026-04-26 16:25 35.25568 -119.03923 14424 ft 270 kts 345°
2026-04-26 16:25 35.27401 -119.04446 14418 ft 270 kts 345°
2026-04-26 16:25 35.29223 -119.04964 14418 ft 270 kts 345°
2026-04-26 16:26 35.31080 -119.05491 14417 ft 270 kts 345°
2026-04-26 16:26 35.32895 -119.06012 14420 ft 270 kts 345°
2026-04-26 16:26 35.34745 -119.06543 14421 ft 271 kts 345°
2026-04-26 16:26 35.36566 -119.07067 14419 ft 270 kts 345°
2026-04-26 16:27 35.38383 -119.07633 14419 ft 269 kts 344°
2026-04-26 16:27 35.40206 -119.08213 14418 ft 269 kts 344°
2026-04-26 16:27 35.42004 -119.08788 14418 ft 268 kts 344°
2026-04-26 16:27 35.43849 -119.09120 14427 ft 269 kts 355°
2026-04-26 16:28 35.45710 -119.09349 14431 ft 268 kts 352°
2026-04-26 16:28 35.47536 -119.09705 14429 ft 266 kts 339°
2026-04-26 16:28 35.48915 -119.11094 14303 ft 252 kts 305°
2026-04-26 16:28 35.49782 -119.12946 13715 ft 252 kts 300°
2026-04-26 16:29 35.50601 -119.14798 13097 ft 244 kts 300°
2026-04-26 16:29 35.51383 -119.16592 12484 ft 239 kts 299°
2026-04-26 16:29 35.52154 -119.18377 11861 ft 235 kts 299°
2026-04-26 16:29 35.52909 -119.20136 11228 ft 232 kts 299°
2026-04-26 16:30 35.53653 -119.21873 10614 ft 229 kts 298°
2026-04-26 16:30 35.54361 -119.23534 10431 ft 210 kts 298°
2026-04-26 16:30 35.55000 -119.25033 10410 ft 189 kts 299°
2026-04-26 16:30 35.55585 -119.26405 10402 ft 171 kts 299°
2026-04-26 16:31 35.56106 -119.27630 10396 ft 156 kts 299°
2026-04-26 16:31 35.56607 -119.28804 10075 ft 163 kts 299°
2026-04-26 16:31 35.57159 -119.30097 9508 ft 185 kts 298°
2026-04-26 16:31 35.57781 -119.31555 8907 ft 202 kts 298°
2026-04-26 16:32 35.58447 -119.33122 8284 ft 213 kts 298°
2026-04-26 16:32 35.58910 -119.34213 7866 ft 218 kts 298°
2026-04-26 16:32 35.59853 -119.36431 7037 ft 226 kts 298°
2026-04-26 16:32 35.60576 -119.38135 6521 ft 225 kts 298°
2026-04-26 16:33 35.61270 -119.39776 6422 ft 208 kts 299°
2026-04-26 16:33 35.61919 -119.41299 6403 ft 192 kts 299°
2026-04-26 16:33 35.62511 -119.42696 6397 ft 179 kts 299°
2026-04-26 16:33 35.63065 -119.44001 6396 ft 168 kts 299°
2026-04-26 16:34 35.63591 -119.45239 6402 ft 159 kts 298°
2026-04-26 16:34 35.64091 -119.46420 6406 ft 151 kts 298°
2026-04-26 16:34 35.64561 -119.47537 6412 ft 145 kts 299°
2026-04-26 16:34 35.65021 -119.48624 6409 ft 139 kts 300°
2026-04-26 16:35 35.65458 -119.49660 6412 ft 134 kts 300°
2026-04-26 16:35 35.65885 -119.50665 6409 ft 137 kts 300°
2026-04-26 16:35 35.66391 -119.51849 6449 ft 180 kts 299°
2026-04-26 16:35 35.67030 -119.53355 6445 ft 216 kts 299°
2026-04-26 16:36 35.67778 -119.55126 6196 ft 253 kts 298°
2026-04-26 16:36 35.68628 -119.57137 5615 ft 269 kts 298°
2026-04-26 16:36 35.69476 -119.59152 4985 ft 265 kts 298°
2026-04-26 16:36 35.70308 -119.61125 4510 ft 253 kts 298°
2026-04-26 16:37 35.71085 -119.62971 4417 ft 233 kts 298°
2026-04-26 16:37 35.71802 -119.64676 4405 ft 216 kts 298°
2026-04-26 16:37 35.72469 -119.66263 4407 ft 203 kts 298°
2026-04-26 16:37 35.73107 -119.67774 4413 ft 194 kts 298°
2026-04-26 16:38 35.73711 -119.69211 4415 ft 188 kts 298°
2026-04-26 16:38 35.74307 -119.70628 4417 ft 183 kts 298°
2026-04-26 16:38 35.74881 -119.71992 4415 ft 179 kts 298°
2026-04-26 16:38 35.75451 -119.73347 4415 ft 176 kts 298°
2026-04-26 16:39 35.76007 -119.74670 4415 ft 173 kts 298°
2026-04-26 16:39 35.76560 -119.75986 4417 ft 171 kts 298°
2026-04-26 16:39 35.77102 -119.77276 4420 ft 169 kts 298°
2026-04-26 16:39 35.77643 -119.78565 4418 ft 168 kts 298°
2026-04-26 16:40 35.78176 -119.79835 4418 ft 167 kts 298°
2026-04-26 16:40 35.78531 -119.81177 4417 ft 174 kts 272°
2026-04-26 16:40 35.78573 -119.82836 4446 ft 213 kts 272°
2026-04-26 16:40 35.78621 -119.84786 4437 ft 243 kts 272°
2026-04-26 16:41 35.78679 -119.86952 4431 ft 263 kts 272°
2026-04-26 16:41 35.78742 -119.89271 4426 ft 276 kts 272°
2026-04-26 16:41 35.78806 -119.91664 4425 ft 284 kts 272°
2026-04-26 16:41 35.78873 -119.94096 4427 ft 289 kts 272°
2026-04-26 16:42 35.78944 -119.96597 4487 ft 289 kts 272°
2026-04-26 16:42 35.79017 -119.98989 4431 ft 276 kts 272°
2026-04-26 16:42 35.79082 -120.01299 4405 ft 261 kts 272°
2026-04-26 16:42 35.79172 -120.03482 4400 ft 251 kts 280°
2026-04-26 16:43 35.79991 -120.05283 4421 ft 244 kts 307°
2026-04-26 16:43 35.80993 -120.06985 4416 ft 244 kts 306°
2026-04-26 16:43 35.81983 -120.08701 4414 ft 244 kts 306°
2026-04-26 16:43 35.82956 -120.10414 4413 ft 244 kts 305°
2026-04-26 16:44 35.83921 -120.12125 4413 ft 244 kts 305°
2026-04-26 16:44 35.84888 -120.13850 4406 ft 250 kts 305°
2026-04-26 16:44 35.85902 -120.15664 4447 ft 260 kts 305°
2026-04-26 16:44 35.86924 -120.17495 4821 ft 255 kts 305°
2026-04-26 16:45 35.87917 -120.19276 5193 ft 252 kts 305°
2026-04-26 16:45 35.88902 -120.21045 5563 ft 249 kts 305°
2026-04-26 16:45 35.89852 -120.22752 5929 ft 241 kts 306°
2026-04-26 16:45 35.90806 -120.24465 6302 ft 243 kts 306°
2026-04-26 16:46 35.91790 -120.26231 6399 ft 256 kts 306°
2026-04-26 16:46 35.92823 -120.28088 6411 ft 266 kts 305°
2026-04-26 16:46 35.93846 -120.29936 6403 ft 260 kts 306°
2026-04-26 16:46 35.94863 -120.31767 6402 ft 255 kts 306°
2026-04-26 16:47 35.95860 -120.33563 6397 ft 252 kts 306°
2026-04-26 16:47 35.96843 -120.35333 6393 ft 250 kts 306°
2026-04-26 16:47 35.97825 -120.37104 6391 ft 249 kts 306°
2026-04-26 16:47 35.98801 -120.38863 6389 ft 247 kts 305°
2026-04-26 16:48 35.99774 -120.40620 6387 ft 247 kts 305°
2026-04-26 16:48 36.00744 -120.42372 6383 ft 247 kts 306°
2026-04-26 16:48 36.01711 -120.44122 6380 ft 246 kts 305°
2026-04-26 16:48 36.02666 -120.45847 6377 ft 246 kts 305°
2026-04-26 16:49 36.03635 -120.47604 6374 ft 246 kts 306°
2026-04-26 16:49 36.04604 -120.49356 6372 ft 246 kts 306°
2026-04-26 16:49 36.05566 -120.51099 6373 ft 246 kts 306°
2026-04-26 16:49 36.06530 -120.52846 6374 ft 245 kts 306°
2026-04-26 16:50 36.07484 -120.54577 6376 ft 245 kts 306°
2026-04-26 16:50 36.08443 -120.56313 6376 ft 244 kts 306°
2026-04-26 16:50 36.09399 -120.58049 6378 ft 244 kts 306°
2026-04-26 16:50 36.10351 -120.59775 6379 ft 244 kts 305°
2026-04-26 16:51 36.11308 -120.61514 6380 ft 244 kts 305°
2026-04-26 16:51 36.12259 -120.63244 6381 ft 244 kts 305°
2026-04-26 16:51 36.13219 -120.64987 6381 ft 243 kts 305°
2026-04-26 16:51 36.14227 -120.66647 6358 ft 243 kts 319°
2026-04-26 16:52 36.15536 -120.67928 6387 ft 241 kts 322°
2026-04-26 16:52 36.16418 -120.68790 6382 ft 241 kts 321°
2026-04-26 16:52 36.18181 -120.70515 6381 ft 241 kts 322°
2026-04-26 16:52 36.19482 -120.71848 6379 ft 241 kts 320°
2026-04-26 16:53 36.20754 -120.73183 6379 ft 241 kts 320°
2026-04-26 16:53 36.22022 -120.74523 6378 ft 241 kts 319°
2026-04-26 16:53 36.23305 -120.75887 6377 ft 241 kts 319°
2026-04-26 16:53 36.24573 -120.77238 6377 ft 241 kts 319°
2026-04-26 16:54 36.25850 -120.78597 6378 ft 241 kts 319°
2026-04-26 16:54 36.27107 -120.79937 6462 ft 238 kts 319°
2026-04-26 16:54 36.28363 -120.81280 6470 ft 240 kts 319°
2026-04-26 16:54 36.29620 -120.82624 6473 ft 243 kts 319°
2026-04-26 16:55 36.30913 -120.84006 6473 ft 246 kts 319°
2026-04-26 16:55 36.32224 -120.85407 6474 ft 247 kts 319°
2026-04-26 16:55 36.33530 -120.86803 6474 ft 248 kts 319°
2026-04-26 16:55 36.34834 -120.88198 6475 ft 249 kts 319°
2026-04-26 16:56 36.37453 -120.91006 6476 ft 250 kts 319°
2026-04-26 16:56 36.38775 -120.92421 6476 ft 250 kts 319°
2026-04-26 16:56 36.40085 -120.93825 6474 ft 249 kts 319°
2026-04-26 16:57 36.41404 -120.95241 6473 ft 249 kts 319°
2026-04-26 16:57 36.42711 -120.96643 6472 ft 249 kts 319°
2026-04-26 16:57 36.45329 -120.99456 6470 ft 248 kts 319°
2026-04-26 16:58 36.46634 -121.00859 6469 ft 247 kts 319°
2026-04-26 16:58 36.47492 -121.01781 6469 ft 247 kts 319°
2026-04-26 16:58 36.50525 -121.05044 6465 ft 246 kts 318°
2026-04-26 16:59 36.51815 -121.06434 6468 ft 245 kts 318°
2026-04-26 16:59 36.54377 -121.09194 6473 ft 245 kts 318°
2026-04-26 17:00 36.56952 -121.11970 5803 ft 234 kts 318°
2026-04-26 17:00 36.59304 -121.14508 5024 ft 216 kts 318°
2026-04-26 17:00 36.60407 -121.15700 4788 ft 204 kts 317°
2026-04-26 17:01 36.61520 -121.16904 4812 ft 221 kts 318°
2026-04-26 17:01 36.62717 -121.18205 4902 ft 233 kts 317°
2026-04-26 17:01 36.63934 -121.19518 5174 ft 231 kts 319°
2026-04-26 17:01 36.65179 -121.20802 5208 ft 236 kts 320°
2026-04-26 17:02 36.66466 -121.22131 5053 ft 241 kts 317°
2026-04-26 17:02 36.67676 -121.23568 4898 ft 242 kts 315°
2026-04-26 17:02 36.68926 -121.24945 4792 ft 240 kts 320°
2026-04-26 17:02 36.70202 -121.26255 4772 ft 236 kts 320°
2026-04-26 17:03 36.71481 -121.27563 4662 ft 237 kts 319°
2026-04-26 17:03 36.72722 -121.28877 4713 ft 230 kts 317°
2026-04-26 17:03 36.73888 -121.30179 4772 ft 227 kts 316°
2026-04-26 17:03 36.75076 -121.31531 4612 ft 233 kts 317°
2026-04-26 17:04 36.76305 -121.32886 4416 ft 238 kts 317°
2026-04-26 17:04 36.77537 -121.34259 4216 ft 242 kts 317°
2026-04-26 17:04 36.78808 -121.35628 4178 ft 238 kts 318°
2026-04-26 17:04 36.80055 -121.36974 4180 ft 233 kts 318°
2026-04-26 17:05 36.81267 -121.38296 4075 ft 234 kts 318°
2026-04-26 17:05 36.82528 -121.39648 3783 ft 242 kts 318°
2026-04-26 17:05 36.83805 -121.41047 3561 ft 239 kts 317°
2026-04-26 17:05 36.85026 -121.42405 3299 ft 236 kts 317°
2026-04-26 17:06 36.86270 -121.43774 2897 ft 238 kts 318°
2026-04-26 17:06 36.87505 -121.45115 2544 ft 231 kts 319°
2026-04-26 17:06 36.88713 -121.46397 2527 ft 226 kts 319°
2026-04-26 17:06 36.89906 -121.47658 2495 ft 226 kts 319°
2026-04-26 17:07 36.91101 -121.48917 2500 ft 224 kts 318°
2026-04-26 17:07 36.92275 -121.50215 2473 ft 225 kts 317°
2026-04-26 17:07 36.93465 -121.51447 2626 ft 218 kts 325°
2026-04-26 17:07 36.94801 -121.52336 2622 ft 221 kts 336°
2026-04-26 17:08 36.96262 -121.53022 2561 ft 225 kts 337°
2026-04-26 17:08 36.97694 -121.53813 2395 ft 223 kts 334°
2026-04-26 17:08 36.99108 -121.54634 2151 ft 224 kts 335°
2026-04-26 17:08 37.00516 -121.55424 1994 ft 219 kts 335°
2026-04-26 17:09 37.01887 -121.56211 1879 ft 213 kts 335°
2026-04-26 17:09 37.02776 -121.56701 1724 ft 212 kts 335°
2026-04-26 17:09 37.04446 -121.57632 1514 ft 169 kts 335°
2026-04-26 17:09 37.05135 -121.58012 1345 ft 156 kts 335°
2026-04-26 17:10 37.06385 -121.58722 1151 ft 150 kts 336°
2026-04-26 17:10 37.07363 -121.59267 1392 ft 157 kts 332°
2026-04-26 17:10 37.08324 -121.59914 1760 ft 158 kts 329°
2026-04-26 17:10 37.09293 -121.60591 2005 ft 162 kts 330°
2026-04-26 17:11 37.10357 -121.61157 2101 ft 169 kts 344°
2026-04-26 17:11 37.11504 -121.61055 2345 ft 167 kts 25°
2026-04-26 17:11 37.12162 -121.59967 2388 ft 163 kts 84°
2026-04-26 17:11 37.11709 -121.58746 2374 ft 157 kts 140°
2026-04-26 17:12 37.10101 -121.57063 2173 ft 146 kts 144°
2026-04-26 17:12 37.09289 -121.56319 1888 ft 143 kts 147°
2026-04-26 17:13 37.07767 -121.55179 1322 ft 123 kts 153°
2026-04-26 17:13 37.07023 -121.54717 1078 ft 110 kts 158°
2026-04-26 17:13 37.05980 -121.55379 1039 ft 106 kts 275°
2026-04-26 17:14 37.06358 -121.56145 998 ft 103 kts 311°
2026-04-26 17:14 37.06184 -121.57672 977 ft 103 kts 235°
2026-04-26 17:14 37.06116 -121.58473 1193 ft 92 kts 298°
2026-04-26 17:15 37.07243 -121.59200 522 ft 91 kts 346°
2026-04-26 17:15 37.07823 -121.59501 283 ft 82 kts 336°
2026-04-26 17:15 37.08297 -121.59763 277 ft 66 kts 339°
2026-04-26 17:16 37.08530 -121.59888 279 ft 12 kts 312°
2026-04-26 17:16 37.08519 -121.59963 280 ft 7 kts 242°
2026-04-26 17:16 37.08500 -121.60015 281 ft 4 kts 258°
2026-04-26 17:16 37.08478 -121.60021 281 ft 4 kts 128°
2026-04-26 17:17 37.08475 -121.60020 281 ft 0 kts 246°
2026-04-26 17:17 37.08474 -121.60022 281 ft 0 kts 247°